sensor_id;sensor_type;location;lat;lon;timestamp;P1;durP1;ratioP1;P2;durP2;ratioP2
1368;SDS011;678;49.242;9.334;2023-07-28T00:00:30;0.63;;;0.63;;
1368;SDS011;678;49.242;9.334;2023-07-28T00:02:57;0.10;;;0.10;;
1368;SDS011;678;49.242;9.334;2023-07-28T00:05:24;0.00;;;0.00;;
1368;SDS011;678;49.242;9.334;2023-07-28T00:07:52;0.10;;;0.10;;
1368;SDS011;678;49.242;9.334;2023-07-28T00:10:19;2.58;;;1.08;;
1368;SDS011;678;49.242;9.334;2023-07-28T00:12:46;0.85;;;0.45;;
1368;SDS011;678;49.242;9.334;2023-07-28T00:15:13;0.20;;;0.20;;
1368;SDS011;678;49.242;9.334;2023-07-28T00:17:40;0.10;;;0.10;;
1368;SDS011;678;49.242;9.334;2023-07-28T00:20:09;0.60;;;0.43;;
1368;SDS011;678;49.242;9.334;2023-07-28T00:22:36;0.20;;;0.20;;
1368;SDS011;678;49.242;9.334;2023-07-28T00:25:05;0.20;;;0.20;;
1368;SDS011;678;49.242;9.334;2023-07-28T00:27:32;0.47;;;0.47;;
1368;SDS011;678;49.242;9.334;2023-07-28T00:29:59;0.10;;;0.10;;
1368;SDS011;678;49.242;9.334;2023-07-28T00:32:26;0.52;;;0.52;;
1368;SDS011;678;49.242;9.334;2023-07-28T00:34:53;0.20;;;0.20;;
1368;SDS011;678;49.242;9.334;2023-07-28T00:37:20;0.10;;;0.10;;
1368;SDS011;678;49.242;9.334;2023-07-28T00:39:47;0.60;;;0.40;;
1368;SDS011;678;49.242;9.334;2023-07-28T00:42:16;0.20;;;0.20;;
1368;SDS011;678;49.242;9.334;2023-07-28T00:44:43;0.10;;;0.10;;
1368;SDS011;678;49.242;9.334;2023-07-28T00:47:10;0.28;;;0.28;;
1368;SDS011;678;49.242;9.334;2023-07-28T00:49:37;0.10;;;0.10;;
1368;SDS011;678;49.242;9.334;2023-07-28T00:52:04;0.93;;;0.50;;
1368;SDS011;678;49.242;9.334;2023-07-28T00:54:33;0.75;;;0.75;;
1368;SDS011;678;49.242;9.334;2023-07-28T00:57:01;0.10;;;0.10;;
1368;SDS011;678;49.242;9.334;2023-07-28T00:59:29;0.15;;;0.15;;
1368;SDS011;678;49.242;9.334;2023-07-28T01:01:56;0.10;;;0.10;;
1368;SDS011;678;49.242;9.334;2023-07-28T01:04:23;0.20;;;0.20;;
1368;SDS011;678;49.242;9.334;2023-07-28T01:06:53;0.03;;;0.03;;
1368;SDS011;678;49.242;9.334;2023-07-28T01:09:21;0.00;;;0.00;;
1368;SDS011;678;49.242;9.334;2023-07-28T01:11:52;0.10;;;0.10;;
1368;SDS011;678;49.242;9.334;2023-07-28T01:14:20;0.63;;;0.40;;
1368;SDS011;678;49.242;9.334;2023-07-28T01:16:48;0.17;;;0.17;;
1368;SDS011;678;49.242;9.334;2023-07-28T01:19:16;1.30;;;0.65;;
1368;SDS011;678;49.242;9.334;2023-07-28T01:21:44;0.15;;;0.15;;
1368;SDS011;678;49.242;9.334;2023-07-28T01:24:13;0.20;;;0.20;;
1368;SDS011;678;49.242;9.334;2023-07-28T01:26:42;0.10;;;0.10;;
1368;SDS011;678;49.242;9.334;2023-07-28T01:29:10;0.38;;;0.38;;
1368;SDS011;678;49.242;9.334;2023-07-28T01:31:38;0.22;;;0.22;;
1368;SDS011;678;49.242;9.334;2023-07-28T01:34:06;0.17;;;0.17;;
1368;SDS011;678;49.242;9.334;2023-07-28T01:36:33;0.00;;;0.00;;
1368;SDS011;678;49.242;9.334;2023-07-28T01:39:00;0.50;;;0.50;;
1368;SDS011;678;49.242;9.334;2023-07-28T01:41:27;0.30;;;0.30;;
1368;SDS011;678;49.242;9.334;2023-07-28T01:43:55;0.00;;;0.00;;
1368;SDS011;678;49.242;9.334;2023-07-28T01:46:22;0.10;;;0.10;;
1368;SDS011;678;49.242;9.334;2023-07-28T01:48:49;0.17;;;0.17;;
1368;SDS011;678;49.242;9.334;2023-07-28T01:51:16;0.55;;;0.55;;
1368;SDS011;678;49.242;9.334;2023-07-28T01:53:43;0.20;;;0.20;;
1368;SDS011;678;49.242;9.334;2023-07-28T01:56:10;0.68;;;0.68;;
1368;SDS011;678;49.242;9.334;2023-07-28T01:58:37;0.55;;;0.40;;
1368;SDS011;678;49.242;9.334;2023-07-28T02:01:06;0.40;;;0.40;;
1368;SDS011;678;49.242;9.334;2023-07-28T02:03:33;0.10;;;0.10;;
1368;SDS011;678;49.242;9.334;2023-07-28T02:06:00;0.10;;;0.10;;
1368;SDS011;678;49.242;9.334;2023-07-28T02:08:27;0.10;;;0.10;;
1368;SDS011;678;49.242;9.334;2023-07-28T02:10:54;0.10;;;0.10;;
1368;SDS011;678;49.242;9.334;2023-07-28T02:13:21;0.88;;;0.55;;
1368;SDS011;678;49.242;9.334;2023-07-28T02:15:48;0.73;;;0.73;;
1368;SDS011;678;49.242;9.334;2023-07-28T02:18:16;0.10;;;0.10;;
1368;SDS011;678;49.242;9.334;2023-07-28T02:20:43;0.32;;;0.32;;
1368;SDS011;678;49.242;9.334;2023-07-28T02:23:10;0.75;;;0.40;;
1368;SDS011;678;49.242;9.334;2023-07-28T02:25:38;0.10;;;0.10;;
1368;SDS011;678;49.242;9.334;2023-07-28T02:28:06;0.32;;;0.30;;
1368;SDS011;678;49.242;9.334;2023-07-28T02:30:33;0.10;;;0.10;;
1368;SDS011;678;49.242;9.334;2023-07-28T02:33:00;0.15;;;0.08;;
1368;SDS011;678;49.242;9.334;2023-07-28T02:35:29;0.20;;;0.20;;
1368;SDS011;678;49.242;9.334;2023-07-28T02:37:57;0.10;;;0.10;;
1368;SDS011;678;49.242;9.334;2023-07-28T02:40:24;0.10;;;0.10;;
1368;SDS011;678;49.242;9.334;2023-07-28T02:42:51;0.00;;;0.00;;
1368;SDS011;678;49.242;9.334;2023-07-28T02:45:18;0.35;;;0.35;;
1368;SDS011;678;49.242;9.334;2023-07-28T02:47:45;0.30;;;0.30;;
1368;SDS011;678;49.242;9.334;2023-07-28T02:50:12;0.30;;;0.30;;
1368;SDS011;678;49.242;9.334;2023-07-28T02:52:41;0.10;;;0.10;;
1368;SDS011;678;49.242;9.334;2023-07-28T02:55:08;0.13;;;0.13;;
1368;SDS011;678;49.242;9.334;2023-07-28T02:57:35;0.28;;;0.28;;
1368;SDS011;678;49.242;9.334;2023-07-28T03:00:02;0.43;;;0.30;;
1368;SDS011;678;49.242;9.334;2023-07-28T03:02:30;0.17;;;0.17;;
1368;SDS011;678;49.242;9.334;2023-07-28T03:04:58;0.75;;;0.52;;
1368;SDS011;678;49.242;9.334;2023-07-28T03:07:25;0.10;;;0.10;;
1368;SDS011;678;49.242;9.334;2023-07-28T03:09:53;0.43;;;0.43;;
1368;SDS011;678;49.242;9.334;2023-07-28T03:12:20;0.40;;;0.40;;
1368;SDS011;678;49.242;9.334;2023-07-28T03:14:47;0.20;;;0.20;;
1368;SDS011;678;49.242;9.334;2023-07-28T03:17:14;0.20;;;0.20;;
1368;SDS011;678;49.242;9.334;2023-07-28T03:19:41;0.25;;;0.25;;
1368;SDS011;678;49.242;9.334;2023-07-28T03:22:08;0.10;;;0.10;;
1368;SDS011;678;49.242;9.334;2023-07-28T03:24:35;0.10;;;0.10;;
1368;SDS011;678;49.242;9.334;2023-07-28T03:27:04;0.20;;;0.20;;
1368;SDS011;678;49.242;9.334;2023-07-28T03:29:31;0.47;;;0.32;;
1368;SDS011;678;49.242;9.334;2023-07-28T03:31:58;0.10;;;0.10;;
1368;SDS011;678;49.242;9.334;2023-07-28T03:34:25;0.20;;;0.20;;
1368;SDS011;678;49.242;9.334;2023-07-28T03:36:52;0.10;;;0.10;;
1368;SDS011;678;49.242;9.334;2023-07-28T03:39:19;0.10;;;0.10;;
1368;SDS011;678;49.242;9.334;2023-07-28T03:41:46;0.10;;;0.10;;
1368;SDS011;678;49.242;9.334;2023-07-28T03:44:15;0.30;;;0.30;;
1368;SDS011;678;49.242;9.334;2023-07-28T03:46:44;0.10;;;0.10;;
1368;SDS011;678;49.242;9.334;2023-07-28T03:49:11;0.20;;;0.20;;
1368;SDS011;678;49.242;9.334;2023-07-28T03:51:38;0.22;;;0.10;;
1368;SDS011;678;49.242;9.334;2023-07-28T03:54:05;0.65;;;0.65;;
1368;SDS011;678;49.242;9.334;2023-07-28T03:56:33;0.55;;;0.55;;
1368;SDS011;678;49.242;9.334;2023-07-28T03:59:00;0.20;;;0.20;;
1368;SDS011;678;49.242;9.334;2023-07-28T04:01:28;0.20;;;0.20;;
1368;SDS011;678;49.242;9.334;2023-07-28T04:03:55;0.75;;;0.75;;
1368;SDS011;678;49.242;9.334;2023-07-28T04:06:38;0.73;;;0.73;;
1368;SDS011;678;49.242;9.334;2023-07-28T04:09:05;0.10;;;0.10;;
1368;SDS011;678;49.242;9.334;2023-07-28T04:11:33;0.10;;;0.10;;
1368;SDS011;678;49.242;9.334;2023-07-28T04:14:00;0.10;;;0.10;;
1368;SDS011;678;49.242;9.334;2023-07-28T04:16:28;0.20;;;0.20;;
1368;SDS011;678;49.242;9.334;2023-07-28T04:18:55;0.10;;;0.10;;
1368;SDS011;678;49.242;9.334;2023-07-28T04:21:22;0.30;;;0.30;;
1368;SDS011;678;49.242;9.334;2023-07-28T04:23:49;0.30;;;0.30;;
1368;SDS011;678;49.242;9.334;2023-07-28T04:26:17;0.10;;;0.10;;
1368;SDS011;678;49.242;9.334;2023-07-28T04:28:44;0.10;;;0.10;;
1368;SDS011;678;49.242;9.334;2023-07-28T04:31:12;0.30;;;0.30;;
1368;SDS011;678;49.242;9.334;2023-07-28T04:33:41;0.55;;;0.32;;
1368;SDS011;678;49.242;9.334;2023-07-28T04:36:08;0.50;;;0.30;;
1368;SDS011;678;49.242;9.334;2023-07-28T04:38:36;2.15;;;0.88;;
1368;SDS011;678;49.242;9.334;2023-07-28T04:41:02;0.20;;;0.20;;
1368;SDS011;678;49.242;9.334;2023-07-28T04:43:30;0.20;;;0.20;;
1368;SDS011;678;49.242;9.334;2023-07-28T04:45:57;0.10;;;0.10;;
1368;SDS011;678;49.242;9.334;2023-07-28T04:48:24;0.30;;;0.30;;
1368;SDS011;678;49.242;9.334;2023-07-28T04:50:52;0.32;;;0.32;;
1368;SDS011;678;49.242;9.334;2023-07-28T04:53:19;0.47;;;0.38;;
1368;SDS011;678;49.242;9.334;2023-07-28T04:55:46;0.10;;;0.10;;
1368;SDS011;678;49.242;9.334;2023-07-28T04:58:13;2.47;;;0.45;;
1368;SDS011;678;49.242;9.334;2023-07-28T05:00:40;0.10;;;0.10;;
1368;SDS011;678;49.242;9.334;2023-07-28T05:03:07;0.20;;;0.20;;
1368;SDS011;678;49.242;9.334;2023-07-28T05:05:34;0.00;;;0.00;;
1368;SDS011;678;49.242;9.334;2023-07-28T05:08:03;0.80;;;0.80;;
1368;SDS011;678;49.242;9.334;2023-07-28T05:10:30;0.20;;;0.20;;
1368;SDS011;678;49.242;9.334;2023-07-28T05:12:57;1.95;;;0.57;;
1368;SDS011;678;49.242;9.334;2023-07-28T05:15:24;0.10;;;0.10;;
1368;SDS011;678;49.242;9.334;2023-07-28T05:17:51;0.10;;;0.10;;
1368;SDS011;678;49.242;9.334;2023-07-28T05:20:18;0.10;;;0.10;;
1368;SDS011;678;49.242;9.334;2023-07-28T05:22:45;0.10;;;0.10;;
1368;SDS011;678;49.242;9.334;2023-07-28T05:25:13;0.30;;;0.30;;
1368;SDS011;678;49.242;9.334;2023-07-28T05:27:40;0.10;;;0.10;;
1368;SDS011;678;49.242;9.334;2023-07-28T05:30:07;0.65;;;0.65;;
1368;SDS011;678;49.242;9.334;2023-07-28T05:32:35;0.15;;;0.15;;
1368;SDS011;678;49.242;9.334;2023-07-28T05:35:02;0.20;;;0.20;;
1368;SDS011;678;49.242;9.334;2023-07-28T05:37:29;0.10;;;0.10;;
1368;SDS011;678;49.242;9.334;2023-07-28T05:39:56;0.25;;;0.25;;
1368;SDS011;678;49.242;9.334;2023-07-28T05:42:24;0.10;;;0.10;;
1368;SDS011;678;49.242;9.334;2023-07-28T05:44:52;0.10;;;0.10;;
1368;SDS011;678;49.242;9.334;2023-07-28T05:47:20;0.10;;;0.10;;
1368;SDS011;678;49.242;9.334;2023-07-28T05:49:47;0.13;;;0.13;;
1368;SDS011;678;49.242;9.334;2023-07-28T05:52:14;0.10;;;0.10;;
1368;SDS011;678;49.242;9.334;2023-07-28T05:54:41;0.50;;;0.20;;
1368;SDS011;678;49.242;9.334;2023-07-28T05:57:08;0.20;;;0.20;;
1368;SDS011;678;49.242;9.334;2023-07-28T05:59:36;0.03;;;0.03;;
1368;SDS011;678;49.242;9.334;2023-07-28T06:02:03;0.10;;;0.10;;
1368;SDS011;678;49.242;9.334;2023-07-28T06:04:30;0.15;;;0.15;;
1368;SDS011;678;49.242;9.334;2023-07-28T06:06:57;0.45;;;0.45;;
1368;SDS011;678;49.242;9.334;2023-07-28T06:09:24;0.63;;;0.63;;
1368;SDS011;678;49.242;9.334;2023-07-28T06:11:52;0.32;;;0.32;;
1368;SDS011;678;49.242;9.334;2023-07-28T06:14:19;0.10;;;0.10;;
1368;SDS011;678;49.242;9.334;2023-07-28T06:16:47;0.10;;;0.10;;
1368;SDS011;678;49.242;9.334;2023-07-28T06:19:14;0.28;;;0.28;;
1368;SDS011;678;49.242;9.334;2023-07-28T06:21:48;1.38;;;0.50;;
1368;SDS011;678;49.242;9.334;2023-07-28T06:24:15;8.75;;;0.28;;
1368;SDS011;678;49.242;9.334;2023-07-28T06:26:42;0.40;;;0.40;;
1368;SDS011;678;49.242;9.334;2023-07-28T06:29:09;0.20;;;0.20;;
1368;SDS011;678;49.242;9.334;2023-07-28T06:31:36;0.00;;;0.00;;
1368;SDS011;678;49.242;9.334;2023-07-28T06:34:05;0.10;;;0.10;;
1368;SDS011;678;49.242;9.334;2023-07-28T06:36:32;0.25;;;0.25;;
1368;SDS011;678;49.242;9.334;2023-07-28T06:38:59;0.80;;;0.10;;
1368;SDS011;678;49.242;9.334;2023-07-28T06:41:26;0.10;;;0.10;;
1368;SDS011;678;49.242;9.334;2023-07-28T06:43:53;0.15;;;0.15;;
1368;SDS011;678;49.242;9.334;2023-07-28T06:46:20;0.30;;;0.30;;
1368;SDS011;678;49.242;9.334;2023-07-28T06:48:47;0.20;;;0.20;;
1368;SDS011;678;49.242;9.334;2023-07-28T06:51:15;0.75;;;0.35;;
1368;SDS011;678;49.242;9.334;2023-07-28T06:53:42;0.40;;;0.40;;
1368;SDS011;678;49.242;9.334;2023-07-28T06:56:09;0.47;;;0.47;;
1368;SDS011;678;49.242;9.334;2023-07-28T06:58:36;0.10;;;0.10;;
1368;SDS011;678;49.242;9.334;2023-07-28T07:01:03;1.38;;;0.30;;
1368;SDS011;678;49.242;9.334;2023-07-28T07:03:31;0.10;;;0.10;;
1368;SDS011;678;49.242;9.334;2023-07-28T07:05:58;0.20;;;0.20;;
1368;SDS011;678;49.242;9.334;2023-07-28T07:08:26;0.10;;;0.10;;
1368;SDS011;678;49.242;9.334;2023-07-28T07:10:53;0.20;;;0.20;;
1368;SDS011;678;49.242;9.334;2023-07-28T07:13:20;0.47;;;0.25;;
1368;SDS011;678;49.242;9.334;2023-07-28T07:15:47;0.10;;;0.10;;
1368;SDS011;678;49.242;9.334;2023-07-28T07:18:14;0.20;;;0.20;;
1368;SDS011;678;49.242;9.334;2023-07-28T07:20:41;0.55;;;0.55;;
1368;SDS011;678;49.242;9.334;2023-07-28T07:23:08;4.57;;;2.78;;
1368;SDS011;678;49.242;9.334;2023-07-28T07:25:36;3.60;;;3.20;;
1368;SDS011;678;49.242;9.334;2023-07-28T07:28:04;6.25;;;1.40;;
1368;SDS011;678;49.242;9.334;2023-07-28T07:30:31;1.80;;;0.88;;
1368;SDS011;678;49.242;9.334;2023-07-28T07:32:59;2.95;;;2.70;;
1368;SDS011;678;49.242;9.334;2023-07-28T07:35:26;1.00;;;1.00;;
1368;SDS011;678;49.242;9.334;2023-07-28T07:37:53;0.88;;;0.88;;
1368;SDS011;678;49.242;9.334;2023-07-28T07:40:20;0.50;;;0.50;;
1368;SDS011;678;49.242;9.334;2023-07-28T07:42:49;4.90;;;2.67;;
1368;SDS011;678;49.242;9.334;2023-07-28T07:45:17;3.05;;;1.95;;
1368;SDS011;678;49.242;9.334;2023-07-28T07:47:44;1.38;;;1.17;;
1368;SDS011;678;49.242;9.334;2023-07-28T07:50:11;3.55;;;1.02;;
1368;SDS011;678;49.242;9.334;2023-07-28T07:52:38;0.28;;;0.28;;
1368;SDS011;678;49.242;9.334;2023-07-28T07:55:05;0.60;;;0.60;;
1368;SDS011;678;49.242;9.334;2023-07-28T07:57:33;0.75;;;0.75;;
1368;SDS011;678;49.242;9.334;2023-07-28T08:00:01;0.55;;;0.52;;
1368;SDS011;678;49.242;9.334;2023-07-28T08:02:28;0.65;;;0.65;;
1368;SDS011;678;49.242;9.334;2023-07-28T08:04:55;2.75;;;1.00;;
1368;SDS011;678;49.242;9.334;2023-07-28T08:07:22;1.30;;;0.68;;
1368;SDS011;678;49.242;9.334;2023-07-28T08:09:49;0.25;;;0.25;;
1368;SDS011;678;49.242;9.334;2023-07-28T08:12:16;2.30;;;0.32;;
1368;SDS011;678;49.242;9.334;2023-07-28T08:14:44;0.82;;;0.82;;
1368;SDS011;678;49.242;9.334;2023-07-28T08:17:13;0.65;;;0.65;;
1368;SDS011;678;49.242;9.334;2023-07-28T08:19:40;1.75;;;0.43;;
1368;SDS011;678;49.242;9.334;2023-07-28T08:22:07;0.40;;;0.40;;
1368;SDS011;678;49.242;9.334;2023-07-28T08:24:34;2.97;;;2.88;;
1368;SDS011;678;49.242;9.334;2023-07-28T08:27:01;3.33;;;3.05;;
1368;SDS011;678;49.242;9.334;2023-07-28T08:29:28;13.25;;;2.25;;
1368;SDS011;678;49.242;9.334;2023-07-28T08:31:55;12.27;;;2.30;;
1368;SDS011;678;49.242;9.334;2023-07-28T08:34:24;2.40;;;2.30;;
1368;SDS011;678;49.242;9.334;2023-07-28T08:36:51;7.40;;;1.83;;
1368;SDS011;678;49.242;9.334;2023-07-28T08:39:18;2.85;;;2.65;;
1368;SDS011;678;49.242;9.334;2023-07-28T08:41:45;2.80;;;2.60;;
1368;SDS011;678;49.242;9.334;2023-07-28T08:44:12;3.05;;;1.67;;
1368;SDS011;678;49.242;9.334;2023-07-28T08:46:39;2.35;;;2.15;;
1368;SDS011;678;49.242;9.334;2023-07-28T08:49:06;2.63;;;2.40;;
1368;SDS011;678;49.242;9.334;2023-07-28T08:51:34;3.03;;;2.53;;
1368;SDS011;678;49.242;9.334;2023-07-28T08:54:01;2.28;;;2.17;;
1368;SDS011;678;49.242;9.334;2023-07-28T08:56:29;6.25;;;3.63;;
1368;SDS011;678;49.242;9.334;2023-07-28T08:58:59;3.65;;;3.42;;
1368;SDS011;678;49.242;9.334;2023-07-28T09:01:26;1.85;;;1.75;;
1368;SDS011;678;49.242;9.334;2023-07-28T09:03:53;2.90;;;2.10;;
1368;SDS011;678;49.242;9.334;2023-07-28T09:06:27;9.75;;;2.92;;
1368;SDS011;678;49.242;9.334;2023-07-28T09:08:57;0.77;;;0.77;;
1368;SDS011;678;49.242;9.334;2023-07-28T09:11:24;2.63;;;1.92;;
1368;SDS011;678;49.242;9.334;2023-07-28T09:13:53;1.42;;;1.33;;
1368;SDS011;678;49.242;9.334;2023-07-28T09:16:21;3.03;;;2.80;;
1368;SDS011;678;49.242;9.334;2023-07-28T09:18:49;1.65;;;1.52;;
1368;SDS011;678;49.242;9.334;2023-07-28T09:21:17;1.10;;;1.10;;
1368;SDS011;678;49.242;9.334;2023-07-28T09:23:46;6.05;;;1.25;;
1368;SDS011;678;49.242;9.334;2023-07-28T09:26:15;4.03;;;1.55;;
1368;SDS011;678;49.242;9.334;2023-07-28T09:28:42;0.68;;;0.65;;
1368;SDS011;678;49.242;9.334;2023-07-28T09:31:09;0.65;;;0.65;;
1368;SDS011;678;49.242;9.334;2023-07-28T09:33:37;4.72;;;2.38;;
1368;SDS011;678;49.242;9.334;2023-07-28T09:36:08;1.85;;;0.82;;
1368;SDS011;678;49.242;9.334;2023-07-28T09:38:36;0.20;;;0.20;;
1368;SDS011;678;49.242;9.334;2023-07-28T09:41:04;5.57;;;1.67;;
1368;SDS011;678;49.242;9.334;2023-07-28T09:43:34;1.55;;;1.45;;
1368;SDS011;678;49.242;9.334;2023-07-28T09:46:03;2.60;;;1.17;;
1368;SDS011;678;49.242;9.334;2023-07-28T09:48:31;0.88;;;0.88;;
1368;SDS011;678;49.242;9.334;2023-07-28T09:50:58;0.70;;;0.47;;
1368;SDS011;678;49.242;9.334;2023-07-28T09:53:26;1.35;;;1.10;;
1368;SDS011;678;49.242;9.334;2023-07-28T09:55:55;0.40;;;0.40;;
1368;SDS011;678;49.242;9.334;2023-07-28T09:58:23;0.63;;;0.63;;
1368;SDS011;678;49.242;9.334;2023-07-28T10:00:52;0.20;;;0.20;;
1368;SDS011;678;49.242;9.334;2023-07-28T10:03:19;0.52;;;0.50;;
1368;SDS011;678;49.242;9.334;2023-07-28T10:05:47;0.30;;;0.30;;
1368;SDS011;678;49.242;9.334;2023-07-28T10:08:14;1.75;;;1.65;;
1368;SDS011;678;49.242;9.334;2023-07-28T10:10:42;0.65;;;0.22;;
1368;SDS011;678;49.242;9.334;2023-07-28T10:13:18;1.10;;;1.10;;
1368;SDS011;678;49.242;9.334;2023-07-28T10:15:46;0.65;;;0.65;;
1368;SDS011;678;49.242;9.334;2023-07-28T10:18:15;1.27;;;1.23;;
1368;SDS011;678;49.242;9.334;2023-07-28T10:20:42;0.17;;;0.17;;
1368;SDS011;678;49.242;9.334;2023-07-28T10:23:14;0.20;;;0.20;;
1368;SDS011;678;49.242;9.334;2023-07-28T10:25:42;0.45;;;0.38;;
1368;SDS011;678;49.242;9.334;2023-07-28T10:28:25;0.20;;;0.20;;
1368;SDS011;678;49.242;9.334;2023-07-28T10:30:53;1.13;;;0.80;;
1368;SDS011;678;49.242;9.334;2023-07-28T10:33:28;1.17;;;0.50;;
1368;SDS011;678;49.242;9.334;2023-07-28T10:35:55;0.47;;;0.47;;
1368;SDS011;678;49.242;9.334;2023-07-28T10:38:29;0.20;;;0.20;;
1368;SDS011;678;49.242;9.334;2023-07-28T10:41:06;0.10;;;0.10;;
1368;SDS011;678;49.242;9.334;2023-07-28T10:43:34;2.20;;;0.55;;
1368;SDS011;678;49.242;9.334;2023-07-28T10:46:01;0.20;;;0.20;;
1368;SDS011;678;49.242;9.334;2023-07-28T10:48:29;0.57;;;0.57;;
1368;SDS011;678;49.242;9.334;2023-07-28T10:50:56;0.45;;;0.45;;
1368;SDS011;678;49.242;9.334;2023-07-28T10:53:23;0.20;;;0.20;;
1368;SDS011;678;49.242;9.334;2023-07-28T10:55:51;0.22;;;0.22;;
1368;SDS011;678;49.242;9.334;2023-07-28T10:58:19;1.00;;;0.95;;
1368;SDS011;678;49.242;9.334;2023-07-28T11:00:46;0.30;;;0.30;;
1368;SDS011;678;49.242;9.334;2023-07-28T11:03:13;0.10;;;0.10;;
1368;SDS011;678;49.242;9.334;2023-07-28T11:05:41;0.30;;;0.30;;
1368;SDS011;678;49.242;9.334;2023-07-28T11:08:08;0.10;;;0.10;;
1368;SDS011;678;49.242;9.334;2023-07-28T11:10:36;10.63;;;0.93;;
1368;SDS011;678;49.242;9.334;2023-07-28T11:13:05;0.30;;;0.30;;
1368;SDS011;678;49.242;9.334;2023-07-28T11:15:33;0.22;;;0.22;;
1368;SDS011;678;49.242;9.334;2023-07-28T11:18:00;0.90;;;0.90;;
1368;SDS011;678;49.242;9.334;2023-07-28T11:20:27;0.17;;;0.17;;
1368;SDS011;678;49.242;9.334;2023-07-28T11:22:56;0.10;;;0.10;;
1368;SDS011;678;49.242;9.334;2023-07-28T11:25:24;0.38;;;0.38;;
1368;SDS011;678;49.242;9.334;2023-07-28T11:27:52;0.80;;;0.40;;
1368;SDS011;678;49.242;9.334;2023-07-28T11:30:21;1.15;;;0.30;;
1368;SDS011;678;49.242;9.334;2023-07-28T11:32:49;0.10;;;0.10;;
1368;SDS011;678;49.242;9.334;2023-07-28T11:35:17;0.30;;;0.30;;
1368;SDS011;678;49.242;9.334;2023-07-28T11:37:45;0.30;;;0.30;;
1368;SDS011;678;49.242;9.334;2023-07-28T11:40:14;0.28;;;0.28;;
1368;SDS011;678;49.242;9.334;2023-07-28T11:42:43;0.10;;;0.10;;
1368;SDS011;678;49.242;9.334;2023-07-28T11:45:12;0.38;;;0.30;;
1368;SDS011;678;49.242;9.334;2023-07-28T11:47:39;0.10;;;0.10;;
1368;SDS011;678;49.242;9.334;2023-07-28T11:50:06;2.10;;;0.82;;
1368;SDS011;678;49.242;9.334;2023-07-28T11:52:34;0.10;;;0.10;;
1368;SDS011;678;49.242;9.334;2023-07-28T11:55:02;0.35;;;0.35;;
1368;SDS011;678;49.242;9.334;2023-07-28T11:57:30;0.10;;;0.10;;
1368;SDS011;678;49.242;9.334;2023-07-28T11:59:58;0.30;;;0.30;;
1368;SDS011;678;49.242;9.334;2023-07-28T12:02:25;0.15;;;0.15;;
1368;SDS011;678;49.242;9.334;2023-07-28T12:04:53;0.47;;;0.45;;
1368;SDS011;678;49.242;9.334;2023-07-28T12:07:20;0.10;;;0.10;;
1368;SDS011;678;49.242;9.334;2023-07-28T12:09:53;0.20;;;0.20;;
1368;SDS011;678;49.242;9.334;2023-07-28T12:12:24;0.80;;;0.80;;
1368;SDS011;678;49.242;9.334;2023-07-28T12:14:53;0.10;;;0.10;;
1368;SDS011;678;49.242;9.334;2023-07-28T12:17:20;0.20;;;0.20;;
1368;SDS011;678;49.242;9.334;2023-07-28T12:19:55;0.40;;;0.40;;
1368;SDS011;678;49.242;9.334;2023-07-28T12:22:22;2.80;;;1.33;;
1368;SDS011;678;49.242;9.334;2023-07-28T12:24:49;0.45;;;0.25;;
1368;SDS011;678;49.242;9.334;2023-07-28T12:27:16;0.35;;;0.25;;
1368;SDS011;678;49.242;9.334;2023-07-28T12:29:45;0.10;;;0.10;;
1368;SDS011;678;49.242;9.334;2023-07-28T12:32:13;0.20;;;0.20;;
1368;SDS011;678;49.242;9.334;2023-07-28T12:34:40;0.32;;;0.25;;
1368;SDS011;678;49.242;9.334;2023-07-28T12:37:07;0.10;;;0.10;;
1368;SDS011;678;49.242;9.334;2023-07-28T12:39:36;0.10;;;0.10;;
1368;SDS011;678;49.242;9.334;2023-07-28T12:42:04;0.20;;;0.20;;
1368;SDS011;678;49.242;9.334;2023-07-28T12:44:32;0.10;;;0.10;;
1368;SDS011;678;49.242;9.334;2023-07-28T12:46:59;0.10;;;0.10;;
1368;SDS011;678;49.242;9.334;2023-07-28T12:49:27;0.10;;;0.10;;
1368;SDS011;678;49.242;9.334;2023-07-28T12:51:54;0.50;;;0.50;;
1368;SDS011;678;49.242;9.334;2023-07-28T12:54:22;0.25;;;0.25;;
1368;SDS011;678;49.242;9.334;2023-07-28T12:56:49;0.03;;;0.03;;
1368;SDS011;678;49.242;9.334;2023-07-28T12:59:17;0.10;;;0.10;;
1368;SDS011;678;49.242;9.334;2023-07-28T13:01:44;0.80;;;0.75;;
1368;SDS011;678;49.242;9.334;2023-07-28T13:04:11;0.10;;;0.10;;
1368;SDS011;678;49.242;9.334;2023-07-28T13:06:40;0.00;;;0.00;;
1368;SDS011;678;49.242;9.334;2023-07-28T13:09:07;0.15;;;0.15;;
1368;SDS011;678;49.242;9.334;2023-07-28T13:11:34;10.50;;;2.58;;
1368;SDS011;678;49.242;9.334;2023-07-28T13:14:01;1.52;;;1.42;;
1368;SDS011;678;49.242;9.334;2023-07-28T13:16:28;3.25;;;1.52;;
1368;SDS011;678;49.242;9.334;2023-07-28T13:18:56;0.88;;;0.88;;
1368;SDS011;678;49.242;9.334;2023-07-28T13:21:24;0.52;;;0.52;;
1368;SDS011;678;49.242;9.334;2023-07-28T13:23:53;0.52;;;0.52;;
1368;SDS011;678;49.242;9.334;2023-07-28T13:26:20;1.10;;;0.70;;
1368;SDS011;678;49.242;9.334;2023-07-28T13:28:47;0.30;;;0.30;;
1368;SDS011;678;49.242;9.334;2023-07-28T13:31:15;1.45;;;1.30;;
1368;SDS011;678;49.242;9.334;2023-07-28T13:33:42;0.55;;;0.55;;
1368;SDS011;678;49.242;9.334;2023-07-28T13:36:09;0.17;;;0.17;;
1368;SDS011;678;49.242;9.334;2023-07-28T13:38:36;0.30;;;0.30;;
1368;SDS011;678;49.242;9.334;2023-07-28T13:41:05;1.00;;;0.85;;
1368;SDS011;678;49.242;9.334;2023-07-28T13:43:32;4.28;;;2.75;;
1368;SDS011;678;49.242;9.334;2023-07-28T13:46:02;0.30;;;0.30;;
1368;SDS011;678;49.242;9.334;2023-07-28T13:48:29;1.15;;;1.05;;
1368;SDS011;678;49.242;9.334;2023-07-28T13:50:57;4.22;;;0.45;;
1368;SDS011;678;49.242;9.334;2023-07-28T13:53:24;0.10;;;0.10;;
1368;SDS011;678;49.242;9.334;2023-07-28T13:55:51;0.75;;;0.73;;
1368;SDS011;678;49.242;9.334;2023-07-28T13:58:20;0.88;;;0.88;;
1368;SDS011;678;49.242;9.334;2023-07-28T14:00:47;0.20;;;0.20;;
1368;SDS011;678;49.242;9.334;2023-07-28T14:03:14;0.55;;;0.55;;
1368;SDS011;678;49.242;9.334;2023-07-28T14:05:41;0.10;;;0.10;;
1368;SDS011;678;49.242;9.334;2023-07-28T14:08:08;1.08;;;1.08;;
1368;SDS011;678;49.242;9.334;2023-07-28T14:10:36;0.28;;;0.28;;
1368;SDS011;678;49.242;9.334;2023-07-28T14:13:03;0.40;;;0.40;;
1368;SDS011;678;49.242;9.334;2023-07-28T14:15:31;0.30;;;0.30;;
1368;SDS011;678;49.242;9.334;2023-07-28T14:17:58;0.45;;;0.45;;
1368;SDS011;678;49.242;9.334;2023-07-28T14:20:25;0.10;;;0.10;;
1368;SDS011;678;49.242;9.334;2023-07-28T14:22:53;0.20;;;0.20;;
1368;SDS011;678;49.242;9.334;2023-07-28T14:25:20;0.30;;;0.30;;
1368;SDS011;678;49.242;9.334;2023-07-28T14:27:47;0.10;;;0.10;;
1368;SDS011;678;49.242;9.334;2023-07-28T14:30:14;0.32;;;0.32;;
1368;SDS011;678;49.242;9.334;2023-07-28T14:32:42;1.55;;;1.45;;
1368;SDS011;678;49.242;9.334;2023-07-28T14:35:09;0.10;;;0.10;;
1368;SDS011;678;49.242;9.334;2023-07-28T14:37:36;0.85;;;0.63;;
1368;SDS011;678;49.242;9.334;2023-07-28T14:40:03;0.08;;;0.08;;
1368;SDS011;678;49.242;9.334;2023-07-28T14:42:31;1.45;;;0.73;;
1368;SDS011;678;49.242;9.334;2023-07-28T14:44:58;0.30;;;0.30;;
1368;SDS011;678;49.242;9.334;2023-07-28T14:47:25;1.50;;;1.27;;
1368;SDS011;678;49.242;9.334;2023-07-28T14:49:53;0.80;;;0.80;;
1368;SDS011;678;49.242;9.334;2023-07-28T14:52:20;0.25;;;0.25;;
1368;SDS011;678;49.242;9.334;2023-07-28T14:54:47;1.75;;;0.85;;
1368;SDS011;678;49.242;9.334;2023-07-28T14:57:14;0.73;;;0.73;;
1368;SDS011;678;49.242;9.334;2023-07-28T14:59:41;0.65;;;0.65;;
1368;SDS011;678;49.242;9.334;2023-07-28T15:02:09;0.13;;;0.13;;
1368;SDS011;678;49.242;9.334;2023-07-28T15:04:37;0.85;;;0.57;;
1368;SDS011;678;49.242;9.334;2023-07-28T15:07:05;1.35;;;1.00;;
1368;SDS011;678;49.242;9.334;2023-07-28T15:09:33;1.17;;;0.88;;
1368;SDS011;678;49.242;9.334;2023-07-28T15:12:00;0.63;;;0.20;;
1368;SDS011;678;49.242;9.334;2023-07-28T15:14:27;0.90;;;0.90;;
1368;SDS011;678;49.242;9.334;2023-07-28T15:16:54;0.57;;;0.57;;
1368;SDS011;678;49.242;9.334;2023-07-28T15:19:21;1.60;;;0.35;;
1368;SDS011;678;49.242;9.334;2023-07-28T15:21:48;0.15;;;0.15;;
1368;SDS011;678;49.242;9.334;2023-07-28T15:24:16;0.55;;;0.55;;
1368;SDS011;678;49.242;9.334;2023-07-28T15:26:44;0.20;;;0.20;;
1368;SDS011;678;49.242;9.334;2023-07-28T15:29:12;0.20;;;0.20;;
1368;SDS011;678;49.242;9.334;2023-07-28T15:31:39;0.10;;;0.10;;